Time;durP1;ratioP1;P1;durP2;ratioP2;P2;SDS_P1;SDS_P2;PMS_P1;PMS_P2;Temp;Humidity;BMP_temperature;BMP_pressure;BME280_temperature;BME280_humidity;BME280_pressure;Samples;Min_cycle;Max_cycle;Signal;HPM_P1;HPM_P2
2022/07/27 00:01:11;;;;;;;2.70;0.60;;;;;;;16.61;69.68;100176.86;105741;1271;25527;-52
2022/07/27 00:03:43;;;;;;;3.30;0.80;;;;;;;16.56;69.59;100180.23;105888;1271;22553;-52
2022/07/27 00:06:15;;;;;;;2.70;0.60;;;;;;;16.51;69.76;100184.95;105825;1271;22548;-52
2022/07/27 00:08:46;;;;;;;3.10;0.70;;;;;;;16.46;69.84;100183.42;105834;1271;24263;-51
2022/07/27 00:11:18;;;;;;;3.60;0.90;;;;;;;16.42;69.87;100185.50;105796;1271;24256;-52
2022/07/27 00:13:49;;;;;;;2.50;0.60;;;;;;;16.38;70.16;100179.67;105887;1271;22784;-53
2022/07/27 00:16:21;;;;;;;2.80;0.70;;;;;;;16.34;70.20;100185.23;105843;1271;25458;-50
2022/07/27 00:18:52;;;;;;;3.40;0.80;;;;;;;16.30;70.23;100186.23;105920;1271;22652;-51
2022/07/27 00:21:25;;;;;;;2.30;0.70;;;;;;;16.25;70.42;100181.23;105871;1271;22564;-50
2022/07/27 00:23:57;;;;;;;3.00;0.80;;;;;;;16.20;70.48;100183.10;105849;1271;22539;-52
2022/07/27 00:26:29;;;;;;;3.80;0.80;;;;;;;16.16;70.73;100187.57;105836;1271;25249;-51
2022/07/27 00:29:01;;;;;;;3.90;0.70;;;;;;;16.14;70.91;100189.84;105838;1271;22714;-50
2022/07/27 00:31:32;;;;;;;3.10;1.00;;;;;;;16.11;70.82;100192.71;105850;1271;22551;-50
2022/07/27 00:34:03;;;;;;;3.10;0.80;;;;;;;16.08;70.97;100191.76;105856;1271;25472;-52
2022/07/27 00:36:35;;;;;;;3.30;0.50;;;;;;;16.05;70.77;100191.52;105893;1271;22548;-54
2022/07/27 00:39:07;;;;;;;5.60;0.80;;;;;;;16.01;70.83;100197.42;105876;1271;22550;-53
2022/07/27 00:41:38;;;;;;;2.80;0.80;;;;;;;15.98;70.85;100197.73;105789;1271;22540;-50
2022/07/27 00:44:11;;;;;;;3.70;0.70;;;;;;;15.95;70.98;100204.23;105850;1271;22537;-53
2022/07/27 00:46:45;;;;;;;2.90;0.90;;;;;;;15.90;70.81;100203.14;105827;1271;22617;-52
2022/07/27 00:49:17;;;;;;;2.30;0.90;;;;;;;15.84;71.06;100206.59;105763;1271;25455;-51
2022/07/27 00:51:48;;;;;;;3.50;0.90;;;;;;;15.80;71.27;100204.14;105895;1271;22612;-53
2022/07/27 00:54:21;;;;;;;2.40;0.80;;;;;;;15.76;71.41;100199.54;105791;1271;25394;-50
2022/07/27 00:56:52;;;;;;;2.00;0.70;;;;;;;15.74;71.41;100203.60;105833;1271;24219;-53
2022/07/27 00:59:25;;;;;;;2.90;0.90;;;;;;;15.71;71.50;100207.91;105886;1271;25507;-49
2022/07/27 01:01:57;;;;;;;3.30;0.80;;;;;;;15.69;71.63;100207.95;105771;1271;22645;-52
2022/07/27 01:04:29;;;;;;;2.70;0.80;;;;;;;15.68;71.56;100206.42;105838;1271;22564;-50
2022/07/27 01:07:02;;;;;;;5.90;0.60;;;;;;;15.66;71.71;100202.44;105434;1271;480250;-53
2022/07/27 01:12:24;;;;;;;5.00;1.30;;;;;;;15.64;72.55;100199.72;105710;1271;22601;-52
2022/07/27 01:14:59;;;;;;;3.80;0.90;;;;;;;15.62;72.88;100197.33;105761;1271;24418;-52
2022/07/27 01:17:30;;;;;;;4.10;1.20;;;;;;;15.58;72.62;100205.00;105801;1271;22619;-54
2022/07/27 01:20:03;;;;;;;3.20;0.90;;;;;;;15.52;72.71;100206.35;105876;1271;25248;-52
2022/07/27 01:22:34;;;;;;;6.30;1.10;;;;;;;15.47;72.79;100211.58;105991;1271;25346;-51
2022/07/27 01:25:09;;;;;;;6.40;1.20;;;;;;;15.41;73.33;100207.87;105962;1271;22525;-53
2022/07/27 01:27:40;;;;;;;7.70;1.10;;;;;;;15.35;73.73;100207.88;105891;1271;23405;-51
2022/07/27 01:30:30;;;;;;;3.90;1.10;;;;;;;15.28;73.57;100212.43;105877;1271;22608;-50
2022/07/27 01:33:06;;;;;;;4.80;1.00;;;;;;;15.18;74.01;100210.23;105739;1271;24232;-50
2022/07/27 01:35:39;;;;;;;4.80;1.20;;;;;;;15.15;74.27;100205.58;105729;1271;22541;-53
2022/07/27 01:38:12;;;;;;;5.30;1.00;;;;;;;15.15;74.37;100204.30;105851;1271;25356;-51
2022/07/27 01:40:44;;;;;;;5.70;1.30;;;;;;;15.13;74.46;100204.72;105871;1271;22534;-50
2022/07/27 01:43:16;;;;;;;3.90;1.00;;;;;;;15.14;74.66;100204.92;105748;1271;25364;-51
2022/07/27 01:45:47;;;;;;;4.70;1.00;;;;;;;15.14;74.57;100201.40;105799;1271;22813;-53
2022/07/27 01:48:19;;;;;;;6.10;1.30;;;;;;;15.13;74.62;100204.36;105829;1271;22624;-50
2022/07/27 01:50:51;;;;;;;4.30;1.00;;;;;;;15.10;74.38;100206.15;105897;1271;22544;-53
2022/07/27 01:53:23;;;;;;;3.80;1.10;;;;;;;15.07;74.70;100206.60;105988;1271;26585;-50
2022/07/27 01:55:54;;;;;;;3.00;0.80;;;;;;;15.04;74.75;100207.48;105805;1271;24257;-51
2022/07/27 01:58:26;;;;;;;3.20;0.80;;;;;;;15.02;74.78;100208.90;105811;1271;25431;-53
2022/07/27 02:00:58;;;;;;;4.50;0.90;;;;;;;15.05;75.00;100208.23;105863;1271;22551;-54
2022/07/27 02:03:29;;;;;;;3.00;0.90;;;;;;;15.07;75.03;100210.65;106041;1271;22624;-51
2022/07/27 02:06:01;;;;;;;4.30;1.30;;;;;;;15.08;75.11;100213.66;105822;1271;24235;-50
2022/07/27 02:08:33;;;;;;;3.30;0.90;;;;;;;15.09;75.11;100214.08;105831;1271;25512;-50
2022/07/27 02:13:55;;;;;;;4.90;0.90;;;;;;;15.10;74.96;100216.42;105693;1271;22584;-52
2022/07/27 02:16:26;;;;;;;3.50;1.40;;;;;;;15.07;75.20;100213.40;105789;1271;24422;-52
2022/07/27 02:18:58;;;;;;;4.50;0.90;;;;;;;15.05;75.35;100210.18;105761;1271;22535;-50
2022/07/27 02:21:30;;;;;;;5.60;1.10;;;;;;;15.04;75.27;100215.70;106015;1271;24284;-51
2022/07/27 02:24:01;;;;;;;6.40;1.10;;;;;;;15.04;75.41;100215.09;105867;1271;25599;-50
2022/07/27 02:26:32;;;;;;;4.00;1.10;;;;;;;15.03;75.43;100218.25;105791;1271;24283;-51
2022/07/27 02:29:04;;;;;;;3.90;1.00;;;;;;;15.02;75.56;100221.17;105790;1271;22673;-50
2022/07/27 02:31:35;;;;;;;5.50;1.20;;;;;;;15.01;75.83;100225.47;105753;1271;22531;-50
2022/07/27 02:34:07;;;;;;;3.20;1.00;;;;;;;15.01;76.10;100225.01;105824;1271;22594;-53
2022/07/27 02:36:38;;;;;;;7.50;1.20;;;;;;;15.02;76.11;100227.10;105807;1271;25253;-50
2022/07/27 02:39:09;;;;;;;5.10;1.30;;;;;;;15.03;76.07;100230.69;105818;1271;24256;-53
2022/07/27 02:41:41;;;;;;;5.20;1.30;;;;;;;15.05;76.14;100225.48;105668;1271;25348;-50
2022/07/27 02:44:13;;;;;;;5.70;1.20;;;;;;;15.07;76.42;100229.35;105773;1271;24252;-50
2022/07/27 02:46:44;;;;;;;5.10;1.30;;;;;;;15.09;76.70;100231.35;105787;1271;22529;-51
2022/07/27 02:49:16;;;;;;;4.10;1.20;;;;;;;15.10;76.49;100229.45;106039;1271;22541;-49
2022/07/27 02:51:48;;;;;;;4.50;1.20;;;;;;;15.11;76.94;100228.49;105814;1271;25615;-50
2022/07/27 02:54:20;;;;;;;3.80;1.00;;;;;;;15.13;76.75;100226.64;105854;1271;25310;-52
2022/07/27 02:56:53;;;;;;;3.80;1.30;;;;;;;15.13;77.01;100226.20;105819;1270;25286;-50
2022/07/27 02:59:25;;;;;;;5.70;1.30;;;;;;;15.15;76.74;100227.92;105868;1271;22554;-54
2022/07/27 03:01:56;;;;;;;3.80;1.20;;;;;;;15.15;76.88;100220.56;105878;1271;24412;-51
2022/07/27 03:04:28;;;;;;;6.50;1.20;;;;;;;15.15;76.89;100226.48;105852;1271;26621;-52
2022/07/27 03:07:00;;;;;;;4.80;1.10;;;;;;;15.14;76.78;100223.94;105844;1271;22761;-53
2022/07/27 03:09:31;;;;;;;6.50;1.40;;;;;;;15.15;77.06;100227.62;105931;1271;24259;-50
2022/07/27 03:12:03;;;;;;;10.20;1.90;;;;;;;15.16;77.08;100229.56;105773;1271;26385;-50
2022/07/27 03:14:34;;;;;;;4.10;1.20;;;;;;;15.15;77.19;100230.38;105765;1271;25477;-51
2022/07/27 03:17:06;;;;;;;4.90;1.50;;;;;;;15.16;77.26;100229.88;105801;1271;26107;-52
2022/07/27 03:19:37;;;;;;;5.00;1.40;;;;;;;15.16;77.30;100233.31;105806;1271;22540;-54
2022/07/27 03:22:08;;;;;;;5.70;1.40;;;;;;;15.16;77.51;100240.76;105762;1271;22549;-51
2022/07/27 03:24:40;;;;;;;5.20;1.50;;;;;;;15.15;77.66;100246.27;105802;1271;22589;-50
2022/07/27 03:27:12;;;;;;;8.70;1.70;;;;;;;15.15;77.95;100249.65;105782;1271;22563;-50
2022/07/27 03:29:43;;;;;;;7.00;1.70;;;;;;;15.17;78.13;100248.95;105934;1271;22702;-52
2022/07/27 03:32:14;;;;;;;5.80;1.60;;;;;;;15.20;78.19;100245.92;105726;1271;22605;-51
2022/07/27 03:34:46;;;;;;;8.40;2.00;;;;;;;15.22;78.37;100246.64;105725;1271;24733;-51
2022/07/27 03:37:17;;;;;;;7.50;2.20;;;;;;;15.25;78.60;100249.05;106020;1271;22683;-50
2022/07/27 03:39:49;;;;;;;4.50;1.60;;;;;;;15.29;78.69;100250.79;105676;1271;25362;-50
2022/07/27 03:42:20;;;;;;;8.00;1.50;;;;;;;15.32;79.11;100250.79;105890;1271;22575;-50
2022/07/27 03:44:52;;;;;;;7.30;2.00;;;;;;;15.36;79.35;100248.75;105778;1271;25417;-50
2022/07/27 03:47:25;;;;;;;12.80;2.20;;;;;;;15.40;79.66;100246.84;105618;1271;25246;-52
2022/07/27 03:49:58;;;;;;;5.40;1.70;;;;;;;15.44;79.78;100243.04;106079;1271;24413;-54
2022/07/27 03:52:31;;;;;;;5.80;1.70;;;;;;;15.49;79.93;100238.83;105804;1271;25249;-51
2022/07/27 03:55:02;;;;;;;7.30;1.70;;;;;;;15.52;80.03;100232.80;105979;1271;23082;-51
2022/07/27 03:57:34;;;;;;;8.90;2.00;;;;;;;15.56;80.08;100239.03;105929;1271;25512;-52
2022/07/27 04:00:07;;;;;;;7.00;1.60;;;;;;;15.60;80.30;100235.75;106657;1259;22605;-63
2022/07/27 04:02:39;;;;;;;8.40;2.10;;;;;;;15.64;80.18;100235.59;106331;1271;25492;-62
2022/07/27 04:05:12;;;;;;;9.00;2.60;;;;;;;15.69;80.39;100236.56;106271;1271;25391;-62
2022/07/27 04:07:44;;;;;;;5.80;1.90;;;;;;;15.72;80.57;100235.58;106139;1271;25444;-62
2022/07/27 04:10:15;;;;;;;12.20;2.30;;;;;;;15.75;80.61;100230.45;106181;1271;25301;-63
2022/07/27 04:12:47;;;;;;;9.50;2.20;;;;;;;15.79;80.58;100231.77;106295;1271;22546;-65
2022/07/27 04:15:20;;;;;;;11.10;2.00;;;;;;;15.81;80.59;100226.91;106112;1271;24397;-62
2022/07/27 04:17:52;;;;;;;7.30;2.40;;;;;;;15.85;80.75;100225.83;106208;1271;22616;-63
2022/07/27 04:20:24;;;;;;;9.30;2.60;;;;;;;15.89;80.78;100221.83;105976;1271;22563;-63
2022/07/27 04:22:56;;;;;;;8.60;2.60;;;;;;;15.93;80.77;100219.77;106017;1271;22633;-62
2022/07/27 04:25:28;;;;;;;6.70;2.40;;;;;;;15.96;80.81;100217.70;105874;1271;22531;-63
2022/07/27 04:28:01;;;;;;;8.60;2.70;;;;;;;15.99;80.95;100211.19;106448;1271;24227;-63
2022/07/27 04:30:32;;;;;;;7.40;2.50;;;;;;;16.02;81.06;100206.94;106229;1271;26978;-62
2022/07/27 04:33:04;;;;;;;9.40;2.30;;;;;;;16.03;80.99;100205.39;105837;1271;22699;-63
2022/07/27 04:35:36;;;;;;;5.50;1.90;;;;;;;16.06;81.15;100205.23;105884;1271;24453;-62
2022/07/27 04:38:07;;;;;;;9.50;2.60;;;;;;;16.10;81.09;100211.45;105623;1271;24103;-64
2022/07/27 04:40:39;;;;;;;9.20;3.00;;;;;;;16.13;81.27;100218.11;105967;1271;22532;-63
2022/07/27 04:43:11;;;;;;;9.20;3.70;;;;;;;16.15;81.36;100222.20;106046;1271;22666;-63
2022/07/27 04:45:43;;;;;;;10.50;2.80;;;;;;;16.17;81.45;100223.83;105953;1271;25477;-64
2022/07/27 04:48:15;;;;;;;11.90;3.30;;;;;;;16.16;81.60;100224.04;105947;1271;22687;-64
2022/07/27 04:50:48;;;;;;;17.80;3.20;;;;;;;16.13;81.74;100225.52;106021;1271;26574;-62
2022/07/27 04:53:19;;;;;;;9.60;2.80;;;;;;;16.14;81.83;100228.70;106103;1271;22603;-63
2022/07/27 04:55:52;;;;;;;11.90;3.10;;;;;;;16.15;81.77;100228.59;106548;1271;22553;-63
2022/07/27 04:58:23;;;;;;;11.80;3.00;;;;;;;16.18;81.74;100223.56;106063;1271;22563;-63
2022/07/27 05:00:55;;;;;;;10.30;2.30;;;;;;;16.23;81.69;100224.26;106074;1271;22548;-62
2022/07/27 05:03:27;;;;;;;11.20;2.30;;;;;;;16.29;81.51;100223.98;106099;1270;22543;-63
2022/07/27 05:05:59;;;;;;;7.00;2.10;;;;;;;16.34;81.73;100226.16;106103;1271;22544;-64
2022/07/27 05:08:30;;;;;;;5.90;2.20;;;;;;;16.40;81.45;100223.98;105821;1271;25953;-63
2022/07/27 05:11:02;;;;;;;6.80;2.30;;;;;;;16.43;81.51;100220.33;106260;1271;23062;-63
2022/07/27 05:13:36;;;;;;;6.80;2.30;;;;;;;16.46;81.39;100226.41;106154;1271;22764;-65
2022/07/27 05:16:09;;;;;;;8.50;2.90;;;;;;;16.48;81.46;100224.36;106085;1270;25564;-65
2022/07/27 05:18:41;;;;;;;9.00;2.80;;;;;;;16.50;81.56;100234.41;106103;1271;24878;-63
2022/07/27 05:21:13;;;;;;;7.70;2.30;;;;;;;16.54;81.59;100233.77;106106;1271;22619;-65
2022/07/27 05:23:44;;;;;;;9.30;3.10;;;;;;;16.60;81.71;100238.46;105985;1271;22535;-64
2022/07/27 05:26:17;;;;;;;7.30;2.50;;;;;;;16.68;81.91;100238.61;105893;1271;22544;-62
2022/07/27 05:28:48;;;;;;;10.60;3.20;;;;;;;16.79;81.81;100241.94;106006;1271;22695;-64
2022/07/27 05:31:20;;;;;;;9.30;2.70;;;;;;;16.92;82.05;100246.10;106070;1271;23200;-64
2022/07/27 05:33:51;;;;;;;9.50;3.10;;;;;;;17.04;81.81;100252.73;106272;1271;25471;-62
2022/07/27 05:36:23;;;;;;;9.50;2.80;;;;;;;17.19;81.91;100257.70;106108;1271;25248;-63
2022/07/27 05:38:54;;;;;;;8.90;2.20;;;;;;;17.34;81.84;100263.18;106283;1271;22573;-63
2022/07/27 05:41:26;;;;;;;6.70;2.10;;;;;;;17.47;81.30;100267.27;106305;1270;25447;-63
2022/07/27 05:43:58;;;;;;;14.00;5.80;;;;;;;17.56;80.85;100265.13;106232;1271;25736;-64
2022/07/27 05:46:32;;;;;;;8.90;2.80;;;;;;;17.63;80.57;100268.75;106107;1270;23095;-63
2022/07/27 05:49:03;;;;;;;7.30;1.80;;;;;;;17.68;80.19;100260.08;109797;1270;22494;-63
2022/07/27 05:51:35;;;;;;;6.60;1.90;;;;;;;17.72;80.11;100251.21;109802;1270;22971;-64
2022/07/27 05:54:06;;;;;;;6.30;2.00;;;;;;;17.77;79.97;100253.06;109766;1270;22487;-63
2022/07/27 05:56:39;;;;;;;7.00;1.60;;;;;;;17.84;79.79;100251.51;107600;1270;24801;-63
2022/07/27 05:59:11;;;;;;;6.90;1.70;;;;;;;17.90;79.69;100251.91;106070;1271;22537;-63
2022/07/27 06:01:43;;;;;;;9.10;1.80;;;;;;;17.97;79.46;100246.95;105794;1271;22619;-64
2022/07/27 06:04:15;;;;;;;6.80;2.20;;;;;;;18.07;79.63;100251.58;105974;1271;22550;-64
2022/07/27 06:09:36;;;;;;;5.20;1.60;;;;;;;18.22;78.67;100264.64;106011;1270;25433;-64
2022/07/27 06:12:11;;;;;;;6.40;1.70;;;;;;;18.24;78.42;100270.27;105840;1271;22822;-63
2022/07/27 06:14:43;;;;;;;7.30;1.40;;;;;;;18.27;78.17;100269.11;105943;1271;22549;-62
2022/07/27 06:17:15;;;;;;;6.40;1.50;;;;;;;18.29;78.10;100270.48;105918;1271;25248;-63
2022/07/27 06:19:47;;;;;;;8.60;1.30;;;;;;;18.36;78.12;100268.91;106078;1271;22528;-64
2022/07/27 06:22:19;;;;;;;7.20;1.40;;;;;;;18.43;78.03;100270.83;105905;1270;22545;-63
2022/07/27 06:24:50;;;;;;;4.50;1.20;;;;;;;18.49;77.72;100274.05;106006;1270;25398;-63
2022/07/27 06:27:22;;;;;;;4.60;1.10;;;;;;;18.59;77.89;100274.48;106179;1270;25487;-63
2022/07/27 06:29:54;;;;;;;5.80;1.00;;;;;;;18.68;77.69;100271.45;106194;1270;22473;-63
2022/07/27 06:32:25;;;;;;;5.60;1.30;;;;;;;18.75;77.30;100268.59;106121;1271;24810;-63
2022/07/27 06:34:58;;;;;;;7.60;1.10;;;;;;;18.79;76.98;100271.40;106125;1270;25371;-64
2022/07/27 06:37:30;;;;;;;3.80;0.90;;;;;;;18.86;76.81;100276.02;105968;1271;24287;-63
2022/07/27 06:40:02;;;;;;;3.50;0.80;;;;;;;18.93;76.54;100273.93;105975;1270;22553;-65
2022/07/27 06:42:33;;;;;;;3.40;1.10;;;;;;;18.98;76.46;100270.66;106109;1270;25325;-63
2022/07/27 06:45:07;;;;;;;4.90;0.90;;;;;;;19.03;76.27;100273.15;106035;1270;25353;-63
2022/07/27 06:47:40;;;;;;;6.20;0.90;;;;;;;19.10;76.17;100273.05;105961;1270;24227;-63
2022/07/27 06:50:12;;;;;;;5.10;0.80;;;;;;;19.19;76.19;100270.70;106031;1270;22551;-63
2022/07/27 06:52:44;;;;;;;6.50;1.20;;;;;;;19.30;76.06;100275.69;106142;1271;25327;-63
2022/07/27 06:55:16;;;;;;;4.40;0.90;;;;;;;19.37;75.61;100274.67;106213;1270;22594;-64
2022/07/27 06:57:48;;;;;;;6.40;1.40;;;;;;;19.47;75.39;100279.40;106288;1270;22708;-65
2022/07/27 07:00:19;;;;;;;4.60;1.00;;;;;;;19.51;74.34;100277.07;105895;1271;22684;-63
2022/07/27 07:02:56;;;;;;;5.60;1.00;;;;;;;19.50;73.95;100278.31;105917;1271;22606;-63
2022/07/27 07:05:29;;;;;;;4.40;0.70;;;;;;;19.52;74.03;100275.88;106450;1270;23197;-63
2022/07/27 07:08:01;;;;;;;5.10;1.00;;;;;;;19.58;73.69;100277.91;106996;1271;25476;-63
2022/07/27 07:10:33;;;;;;;4.80;0.70;;;;;;;19.64;73.60;100280.07;106146;1270;24768;-64
2022/07/27 07:13:08;;;;;;;7.10;0.80;;;;;;;19.71;73.27;100283.88;106104;1270;25347;-63
2022/07/27 07:15:41;;;;;;;5.50;0.90;;;;;;;19.75;73.07;100282.26;106053;1270;22543;-63
2022/07/27 07:18:14;;;;;;;5.00;1.00;;;;;;;19.77;72.78;100281.70;106003;1270;24400;-62
2022/07/27 07:20:45;;;;;;;2.90;1.00;;;;;;;19.80;72.54;100278.15;106012;1271;23008;-63
2022/07/27 07:23:17;;;;;;;4.30;0.60;;;;;;;19.84;72.55;100275.61;105918;1271;25506;-66
2022/07/27 07:25:49;;;;;;;4.00;0.80;;;;;;;19.89;72.07;100277.84;106007;1270;22624;-63
2022/07/27 07:28:21;;;;;;;7.90;0.90;;;;;;;19.94;71.89;100283.70;106222;1270;24237;-63
2022/07/27 07:30:53;;;;;;;4.00;0.70;;;;;;;20.03;71.68;100283.33;106059;1271;25000;-63
2022/07/27 07:33:26;;;;;;;2.80;0.70;;;;;;;20.12;71.19;100280.42;105880;1270;24325;-63
2022/07/27 07:35:58;;;;;;;7.80;0.90;;;;;;;20.17;70.73;100276.99;106024;1270;22603;-65
2022/07/27 07:38:30;;;;;;;2.70;0.70;;;;;;;20.23;70.49;100276.49;106026;1271;26206;-64
2022/07/27 07:41:02;;;;;;;3.30;0.70;;;;;;;20.25;70.13;100273.47;106165;1270;25490;-64
2022/07/27 07:43:37;;;;;;;5.80;1.00;;;;;;;20.29;70.05;100274.61;106139;1270;22545;-63
2022/07/27 07:46:08;;;;;;;4.30;0.80;;;;;;;20.34;69.43;100277.55;106056;1271;23199;-64
2022/07/27 07:48:42;;;;;;;5.30;1.00;;;;;;;20.35;69.15;100282.07;106045;1270;22695;-63
2022/07/27 07:51:13;;;;;;;4.30;1.10;;;;;;;20.34;68.59;100280.84;106429;1270;22554;-63
2022/07/27 07:53:46;;;;;;;7.30;1.00;;;;;;;20.35;68.25;100285.13;106171;1270;24306;-63
2022/07/27 07:56:18;;;;;;;8.10;1.10;;;;;;;20.36;68.51;100287.52;106193;1270;22516;-65
2022/07/27 07:58:51;;;;;;;4.30;0.80;;;;;;;20.41;68.41;100289.38;106066;1271;22558;-64
2022/07/27 08:01:24;;;;;;;4.30;0.90;;;;;;;20.48;68.13;100287.02;105931;1271;22525;-64
2022/07/27 08:03:57;;;;;;;7.10;1.20;;;;;;;20.60;68.18;100279.86;106148;1270;22704;-63
2022/07/27 08:06:31;;;;;;;6.70;1.80;;;;;;;20.73;68.09;100282.15;106172;1271;22566;-63
2022/07/27 08:09:04;;;;;;;4.30;1.10;;;;;;;20.88;68.11;100284.23;106063;1270;22568;-65
2022/07/27 08:11:37;;;;;;;6.60;0.90;;;;;;;21.00;67.28;100287.45;106089;1270;23945;-63
2022/07/27 08:14:12;;;;;;;4.50;0.90;;;;;;;21.04;66.85;100284.36;106082;1271;22625;-65
2022/07/27 08:16:46;;;;;;;4.10;0.80;;;;;;;21.01;66.20;100286.55;106122;1271;22666;-63
2022/07/27 08:19:18;;;;;;;4.40;0.70;;;;;;;21.01;66.34;100285.81;106092;1271;22554;-64
2022/07/27 08:21:49;;;;;;;5.00;0.70;;;;;;;21.04;66.08;100282.77;106143;1270;22546;-64
2022/07/27 08:24:24;;;;;;;3.00;0.70;;;;;;;21.04;65.69;100285.46;106017;1271;22561;-64
2022/07/27 08:26:56;;;;;;;3.10;0.90;;;;;;;21.01;65.49;100293.50;105987;1270;22675;-64
2022/07/27 08:29:27;;;;;;;5.40;0.90;;;;;;;20.96;65.34;100292.89;105994;1271;25323;-64
2022/07/27 08:31:59;;;;;;;5.20;0.70;;;;;;;20.91;65.14;100295.46;106158;1271;22756;-64
2022/07/27 08:34:31;;;;;;;4.80;0.70;;;;;;;20.91;65.10;100298.67;106188;1270;22610;-63
2022/07/27 08:37:04;;;;;;;4.30;0.70;;;;;;;20.99;64.81;100294.54;106226;1271;24857;-64
2022/07/27 08:39:36;;;;;;;3.20;1.00;;;;;;;21.08;64.45;100292.34;106103;1271;22972;-63
2022/07/27 08:42:10;;;;;;;8.80;1.30;;;;;;;21.09;63.86;100293.84;106015;1270;22750;-64
2022/07/27 08:44:44;;;;;;;5.10;1.30;;;;;;;21.05;63.59;100290.70;105995;1270;22813;-64
2022/07/27 08:47:16;;;;;;;5.90;1.30;;;;;;;21.01;63.59;100285.41;106037;1270;27625;-63
2022/07/27 08:49:48;;;;;;;8.70;1.50;;;;;;;21.03;63.44;100287.55;105932;1270;25412;-63
2022/07/27 08:52:22;;;;;;;7.90;1.70;;;;;;;21.10;63.01;100289.75;106166;1270;23030;-64
2022/07/27 08:54:53;;;;;;;4.40;1.10;;;;;;;21.19;62.84;100287.02;105988;1270;22688;-64
2022/07/27 08:57:25;;;;;;;5.20;0.80;;;;;;;21.31;62.19;100288.55;105912;1270;25352;-63
2022/07/27 08:59:57;;;;;;;4.70;0.50;;;;;;;21.36;61.60;100285.11;106302;1270;22569;-65
2022/07/27 09:02:30;;;;;;;6.70;0.70;;;;;;;21.38;61.85;100286.51;106464;1270;22541;-63
2022/07/27 09:05:04;;;;;;;5.10;0.70;;;;;;;21.42;60.87;100288.77;106181;1271;23071;-63
2022/07/27 09:07:38;;;;;;;2.70;0.60;;;;;;;21.41;60.71;100288.66;106367;1271;22556;-64
2022/07/27 09:10:28;;;;;;;4.70;0.40;;;;;;;21.38;60.76;100287.29;106119;1270;24222;-64
2022/07/27 09:13:16;;;;;;;3.50;0.40;;;;;;;21.41;60.35;100284.60;106249;1270;24316;-64
2022/07/27 09:15:50;;;;;;;2.60;0.50;;;;;;;21.48;60.30;100289.21;106380;1270;25499;-63
2022/07/27 09:18:24;;;;;;;2.10;0.50;;;;;;;21.58;59.46;100288.17;106161;1270;22547;-64
2022/07/27 09:21:18;;;;;;;1.90;0.50;;;;;;;21.61;58.93;100292.81;105881;1270;24424;-66
2022/07/27 09:23:52;;;;;;;3.10;0.50;;;;;;;21.55;58.62;100295.95;106079;1270;24424;-64
2022/07/27 09:26:26;;;;;;;3.90;0.60;;;;;;;21.48;58.45;100295.41;106083;1270;25739;-64
2022/07/27 09:29:01;;;;;;;1.70;0.50;;;;;;;21.41;58.36;100294.45;106229;1270;25460;-64
2022/07/27 09:31:33;;;;;;;6.20;0.70;;;;;;;21.40;58.56;100292.92;106158;1270;25376;-64
2022/07/27 09:34:06;;;;;;;5.60;0.60;;;;;;;21.42;58.73;100295.40;106218;1271;22691;-64
2022/07/27 09:36:52;;;;;;;4.10;0.50;;;;;;;21.44;56.18;100301.55;106161;1270;24357;-63
2022/07/27 09:39:26;;;;;;;3.60;0.60;;;;;;;21.37;55.82;100303.26;106065;1270;22538;-64
2022/07/27 09:42:05;;;;;;;4.50;0.40;;;;;;;21.26;55.62;100287.58;106025;1270;22532;-63
2022/07/27 09:44:38;;;;;;;2.30;0.40;;;;;;;21.30;55.93;100282.41;106078;1271;22548;-65
2022/07/27 09:47:26;;;;;;;4.50;0.60;;;;;;;21.42;56.44;100284.23;106105;1270;24325;-63
2022/07/27 09:50:16;;;;;;;5.00;0.80;;;;;;;21.59;55.98;100283.36;106085;1271;22595;-65
2022/07/27 09:52:48;;;;;;;7.50;0.80;;;;;;;21.73;55.37;100278.17;106151;1271;22466;-64
2022/07/27 09:55:23;;;;;;;7.20;1.20;;;;;;;21.79;55.15;100277.70;106159;1270;22597;-63
2022/07/27 09:57:57;;;;;;;7.60;1.10;;;;;;;21.74;54.99;100287.31;106086;1270;24392;-63
2022/07/27 10:00:29;;;;;;;6.70;1.20;;;;;;;21.64;55.19;100293.33;106321;1270;22558;-64
2022/07/27 10:03:01;;;;;;;5.40;1.00;;;;;;;21.52;55.12;100292.63;106697;1260;22533;-50
2022/07/27 10:05:34;;;;;;;6.00;1.10;;;;;;;21.48;55.71;100294.77;106095;1270;25176;-50
2022/07/27 10:08:07;;;;;;;6.50;1.30;;;;;;;21.52;55.45;100288.33;106037;1268;22517;-50
2022/07/27 10:10:39;;;;;;;7.80;1.60;;;;;;;21.56;55.73;100281.71;106078;1268;22567;-50
2022/07/27 10:13:11;;;;;;;6.60;1.10;;;;;;;21.67;54.77;100281.69;106191;1270;22550;-50
2022/07/27 10:15:44;;;;;;;6.00;0.90;;;;;;;21.68;54.48;100282.71;106097;1270;25535;-50
2022/07/27 10:18:21;;;;;;;4.80;0.70;;;;;;;21.77;53.78;100288.73;106091;1269;24272;-51
2022/07/27 10:20:53;;;;;;;4.10;0.70;;;;;;;21.84;53.16;100284.55;106088;1270;24472;-49
2022/07/27 10:23:33;;;;;;;4.50;0.80;;;;;;;21.85;52.56;100283.38;106069;1270;25520;-50
2022/07/27 10:26:29;;;;;;;4.00;0.60;;;;;;;21.87;52.42;100283.70;106037;1268;24279;-50
2022/07/27 10:29:04;;;;;;;4.10;1.00;;;;;;;21.86;52.22;100282.17;105941;1270;22552;-50
2022/07/27 10:31:37;;;;;;;7.40;0.90;;;;;;;21.90;51.84;100279.17;106004;1268;22572;-53
2022/07/27 10:34:11;;;;;;;4.20;1.00;;;;;;;21.90;52.23;100277.16;106091;1269;22586;-50
2022/07/27 10:36:54;;;;;;;5.30;0.90;;;;;;;22.02;51.94;100279.63;106144;1270;22773;-52
2022/07/27 10:39:43;;;;;;;4.60;0.90;;;;;;;22.05;51.26;100281.40;106088;1268;22692;-50
2022/07/27 10:42:27;;;;;;;5.10;0.80;;;;;;;22.04;51.92;100275.07;106093;1270;25789;-50
2022/07/27 10:45:04;;;;;;;3.40;0.80;;;;;;;22.09;51.32;100280.15;106149;1268;25503;-53
2022/07/27 10:47:39;;;;;;;5.70;0.90;;;;;;;22.11;51.60;100281.23;106274;1270;22559;-49
2022/07/27 10:50:31;;;;;;;7.00;1.00;;;;;;;22.11;51.59;100282.77;106186;1270;22567;-50
2022/07/27 10:53:08;;;;;;;5.10;1.20;;;;;;;22.10;51.28;100281.06;105948;1270;25502;-50
2022/07/27 10:55:51;;;;;;;4.30;0.80;;;;;;;22.04;51.06;100295.38;106278;1270;25255;-50
2022/07/27 10:58:50;;;;;;;4.50;0.90;;;;;;;21.93;51.21;100292.01;106300;1269;22540;-51
2022/07/27 11:01:23;;;;;;;7.50;1.20;;;;;;;21.91;51.24;100298.70;106319;1270;22871;-50
2022/07/27 11:03:58;;;;;;;6.00;1.10;;;;;;;21.91;51.16;100291.08;106128;1270;23847;-51
2022/07/27 11:06:31;;;;;;;4.50;1.00;;;;;;;21.96;50.87;100296.73;106324;1268;22682;-49
2022/07/27 11:09:06;;;;;;;9.00;1.00;;;;;;;21.97;50.77;100297.50;106217;1269;22694;-50
2022/07/27 11:11:38;;;;;;;5.70;0.90;;;;;;;21.99;50.49;100295.62;106136;1269;26952;-50
2022/07/27 11:14:10;;;;;;;3.70;1.00;;;;;;;22.00;49.99;100293.73;106139;1268;25346;-52
2022/07/27 11:16:42;;;;;;;9.30;0.90;;;;;;;22.00;49.74;100296.30;106085;1268;22693;-50
2022/07/27 11:19:15;;;;;;;3.70;0.70;;;;;;;22.08;50.05;100293.52;106256;1268;24735;-50
2022/07/27 11:21:48;;;;;;;2.60;0.70;;;;;;;22.19;49.19;100291.09;106327;1270;24318;-53
2022/07/27 11:24:22;;;;;;;6.90;0.90;;;;;;;22.24;49.33;100291.05;105993;1270;22540;-50
2022/07/27 11:26:55;;;;;;;5.30;0.80;;;;;;;22.34;49.21;100299.20;106126;1270;22531;-52
2022/07/27 11:29:26;;;;;;;4.30;0.80;;;;;;;22.47;48.95;100287.95;106137;1270;22698;-49
2022/07/27 11:31:59;;;;;;;4.70;0.70;;;;;;;22.60;48.72;100286.95;106180;1269;22553;-58
2022/07/27 11:34:32;;;;;;;7.70;0.90;;;;;;;22.68;48.60;100283.20;106150;1268;22569;-49
2022/07/27 11:37:12;;;;;;;4.50;0.50;;;;;;;22.79;48.31;100292.43;106229;1270;26608;-51
2022/07/27 11:39:44;;;;;;;5.70;0.70;;;;;;;22.82;47.73;100294.64;106057;1270;25292;-49
2022/07/27 11:42:15;;;;;;;5.60;0.70;;;;;;;22.80;47.63;100291.36;106117;1268;22550;-53
2022/07/27 11:44:48;;;;;;;4.10;0.50;;;;;;;22.86;47.36;100300.30;106065;1270;22540;-52
2022/07/27 11:47:22;;;;;;;5.90;0.70;;;;;;;22.87;46.71;100302.05;106014;1268;25279;-53
2022/07/27 11:49:54;;;;;;;9.90;0.70;;;;;;;22.82;46.63;100299.77;106006;1270;24293;-52
2022/07/27 11:52:25;;;;;;;4.70;0.60;;;;;;;22.81;46.60;100302.11;106046;1268;22547;-49